createdAt,value
2023-04-07T00:03:09.240Z,7.90
2023-04-07T00:09:11.373Z,7.90
2023-04-07T00:15:13.176Z,7.90
2023-04-07T00:21:15.015Z,7.90
2023-04-07T00:27:16.816Z,7.90
2023-04-07T00:33:18.900Z,7.80
2023-04-07T00:39:22.001Z,7.80
2023-04-07T00:45:23.915Z,7.80
2023-04-07T00:51:26.806Z,7.80
2023-04-07T00:57:29.081Z,7.80
2023-04-07T01:04:01.583Z,7.80
2023-04-07T01:10:08.475Z,7.70
2023-04-07T01:16:41.896Z,7.70
2023-04-07T01:22:47.958Z,7.70
2023-04-07T01:29:31.249Z,7.60
2023-04-07T01:35:36.057Z,7.70
2023-04-07T01:41:39.499Z,7.60
2023-04-07T01:47:41.750Z,7.60
2023-04-07T01:53:47.661Z,7.50
2023-04-07T01:59:49.448Z,7.40
2023-04-07T02:05:57.610Z,7.30
2023-04-07T02:12:04.313Z,7.30
2023-04-07T02:18:07.949Z,7.20
2023-04-07T02:24:11.930Z,7.10
2023-04-07T02:30:14.215Z,7.00
2023-04-07T02:36:16.193Z,6.90
2023-04-07T02:42:18.014Z,6.90
2023-04-07T02:48:19.781Z,6.90
2023-04-07T02:54:21.640Z,6.90
2023-04-07T03:00:23.521Z,6.80
2023-04-07T03:06:27.099Z,6.80
2023-04-07T03:12:29.038Z,6.90
2023-04-07T03:18:30.969Z,6.90
2023-04-07T03:24:33.038Z,6.80
2023-04-07T03:30:34.952Z,6.80
2023-04-07T03:36:36.949Z,6.80
2023-04-07T03:42:38.998Z,6.80
2023-04-07T03:48:40.968Z,6.70
2023-04-07T03:54:43.210Z,6.80
2023-04-07T04:00:45.121Z,6.80
2023-04-07T04:06:47.891Z,6.70
2023-04-07T04:12:50.087Z,6.80
2023-04-07T04:18:51.914Z,6.80
2023-04-07T04:24:53.774Z,6.80
2023-04-07T04:30:56.162Z,6.70
2023-04-07T04:36:57.991Z,6.70
2023-04-07T04:43:00.027Z,6.70
2023-04-07T04:49:01.905Z,6.70
2023-04-07T04:55:03.841Z,6.70
2023-04-07T05:01:06.153Z,6.70
2023-04-07T05:07:08.004Z,6.70
2023-04-07T05:13:10.058Z,6.80
2023-04-07T05:19:11.837Z,7.00
2023-04-07T05:25:13.668Z,8.00
2023-04-07T05:31:15.765Z,8.30
2023-04-07T05:37:17.615Z,8.00
2023-04-07T05:43:19.869Z,8.30
2023-04-07T05:49:21.793Z,7.90
2023-04-07T05:55:23.691Z,7.70
2023-04-07T06:01:27.021Z,7.50
2023-04-07T06:07:30.941Z,7.20
2023-04-07T06:13:33.010Z,7.20
2023-04-07T06:19:35.053Z,7.30
2023-04-07T06:25:37.001Z,7.40
2023-04-07T06:31:38.974Z,7.50
2023-04-07T06:37:41.112Z,7.60
2023-04-07T06:43:48.060Z,7.50
2023-04-07T06:49:50.028Z,7.70
2023-04-07T06:55:51.998Z,7.80
2023-04-07T07:01:53.932Z,7.90
2023-04-07T07:07:55.947Z,8.00
2023-04-07T07:13:58.001Z,8.20
2023-04-07T07:19:59.996Z,8.20
2023-04-07T07:26:01.892Z,8.40
2023-04-07T07:32:03.989Z,8.40
2023-04-07T07:38:06.304Z,8.60
2023-04-07T07:44:08.280Z,8.70
2023-04-07T07:50:10.371Z,9.00
2023-04-07T07:56:12.247Z,9.10
2023-04-07T08:02:14.267Z,9.30
2023-04-07T08:08:16.267Z,9.50
2023-04-07T08:14:18.365Z,9.50
2023-04-07T08:20:20.968Z,9.80
2023-04-07T08:26:22.795Z,10.00
2023-04-07T08:32:24.838Z,10.40
2023-04-07T08:38:26.748Z,10.50
2023-04-07T08:44:30.268Z,10.40
2023-04-07T08:50:32.318Z,10.30
2023-04-07T08:56:34.683Z,10.10
2023-04-07T09:02:41.747Z,10.00
2023-04-07T09:08:43.719Z,10.40
2023-04-07T09:14:45.946Z,11.10
2023-04-07T09:21:02.033Z,11.40
2023-04-07T09:27:17.234Z,11.80
2023-04-07T09:33:27.927Z,11.70
2023-04-07T09:39:30.064Z,11.80
2023-04-07T09:45:35.795Z,11.90
2023-04-07T09:51:39.203Z,11.80
2023-04-07T09:57:42.589Z,11.60
2023-04-07T10:03:47.591Z,11.80
2023-04-07T10:09:49.732Z,12.30
2023-04-07T10:15:53.054Z,12.20
2023-04-07T10:21:57.111Z,12.40
2023-04-07T10:28:04.284Z,12.50
2023-04-07T10:34:06.267Z,13.20
2023-04-07T10:40:20.323Z,13.50
2023-04-07T10:46:22.109Z,13.10
2023-04-07T10:52:24.611Z,12.80
2023-04-07T10:58:33.396Z,12.90
2023-04-07T11:04:39.407Z,13.10
2023-04-07T11:10:47.512Z,13.10
2023-04-07T11:16:49.395Z,13.50
2023-04-07T11:23:00.930Z,13.10
2023-04-07T11:29:02.794Z,13.10
2023-04-07T11:35:07.880Z,12.90
2023-04-07T11:41:14.677Z,12.40
2023-04-07T11:47:16.745Z,12.40
2023-04-07T11:53:43.059Z,12.80
2023-04-07T11:59:44.988Z,13.30
2023-04-07T12:05:46.852Z,12.50
2023-04-07T12:11:51.624Z,12.80
2023-04-07T12:17:55.424Z,13.10
2023-04-07T12:23:57.277Z,13.60
2023-04-07T12:29:59.290Z,13.80
2023-04-07T12:36:01.454Z,13.40
2023-04-07T12:42:03.470Z,13.50
2023-04-07T12:48:05.756Z,13.20
2023-04-07T12:54:07.785Z,14.20
2023-04-07T13:00:10.398Z,14.40
2023-04-07T13:06:12.315Z,14.20
2023-04-07T13:12:14.222Z,14.50
2023-04-07T13:18:16.075Z,14.50
2023-04-07T13:24:17.965Z,14.60
2023-04-07T13:30:23.188Z,14.00
2023-04-07T13:36:27.622Z,13.60
2023-04-07T13:42:29.500Z,13.80
2023-04-07T13:48:31.376Z,14.10
2023-04-07T13:54:33.659Z,14.10
2023-04-07T14:00:35.958Z,14.00
2023-04-07T14:06:38.141Z,13.70
2023-04-07T14:12:40.073Z,13.70
2023-04-07T14:18:42.005Z,13.50
2023-04-07T14:24:43.897Z,13.80
2023-04-07T14:30:45.728Z,14.00
2023-04-07T14:36:58.889Z,14.10
2023-04-07T14:49:06.209Z,13.90
2023-04-07T14:55:08.333Z,14.10
2023-04-07T15:01:10.424Z,14.20
2023-04-07T15:07:12.734Z,14.20
2023-04-07T15:13:14.603Z,14.70
2023-04-07T15:19:16.985Z,14.40
2023-04-07T15:25:19.085Z,14.40
2023-04-07T15:31:23.558Z,14.00
2023-04-07T15:37:26.400Z,14.20
2023-04-07T15:43:29.310Z,14.20
2023-04-07T15:49:31.201Z,14.20
2023-04-07T15:55:34.891Z,14.30
2023-04-07T16:01:38.267Z,13.90
2023-04-07T16:07:40.446Z,13.50
2023-04-07T16:13:42.484Z,13.40
2023-04-07T16:19:44.535Z,13.20
2023-04-07T16:25:46.504Z,13.30
2023-04-07T16:31:49.064Z,13.40
2023-04-07T16:37:51.305Z,13.30
2023-04-07T16:43:53.168Z,13.20
2023-04-07T16:49:55.214Z,12.80
2023-04-07T16:55:57.114Z,12.70
2023-04-07T17:01:59.014Z,12.50
2023-04-07T17:08:01.011Z,12.30
2023-04-07T17:14:03.366Z,12.20
2023-04-07T17:20:05.578Z,12.00
2023-04-07T17:26:07.865Z,12.00
2023-04-07T17:32:09.839Z,11.80
2023-04-07T17:38:11.699Z,11.50
2023-04-07T17:44:13.789Z,11.20
2023-04-07T17:50:18.553Z,11.00
2023-04-07T17:56:20.791Z,10.90
2023-04-07T18:02:23.081Z,10.90
2023-04-07T18:08:26.295Z,10.80
2023-04-07T18:14:28.743Z,10.70
2023-04-07T18:20:32.082Z,10.50
2023-04-07T18:26:36.913Z,10.30
2023-04-07T18:32:38.842Z,10.20
2023-04-07T18:38:41.203Z,10.10
2023-04-07T18:44:43.264Z,10.10
2023-04-07T18:50:51.340Z,9.90
2023-04-07T18:56:53.257Z,9.80
2023-04-07T19:02:55.222Z,9.80
2023-04-07T19:08:57.809Z,9.70
2023-04-07T19:14:59.607Z,9.60
2023-04-07T19:21:01.556Z,9.50
2023-04-07T19:27:04.278Z,9.40
2023-04-07T19:33:06.444Z,9.30
2023-04-07T19:39:08.251Z,9.20
2023-04-07T19:45:10.796Z,9.20
2023-04-07T19:51:12.885Z,9.10
2023-04-07T19:57:16.024Z,9.00
2023-04-07T20:03:19.164Z,8.90
2023-04-07T20:09:25.756Z,8.90
2023-04-07T20:15:28.273Z,8.90
2023-04-07T20:21:32.395Z,8.80
2023-04-07T20:27:34.405Z,8.50
2023-04-07T20:33:36.445Z,8.20
2023-04-07T20:39:38.547Z,8.10
2023-04-07T20:45:41.182Z,7.90
2023-04-07T20:51:43.090Z,7.80
2023-04-07T20:57:45.234Z,7.60
2023-04-07T21:03:47.532Z,7.40
2023-04-07T21:09:49.449Z,7.30
2023-04-07T21:15:51.248Z,7.30
2023-04-07T21:21:53.219Z,7.20
2023-04-07T21:27:55.665Z,7.10
2023-04-07T21:33:57.459Z,7.00
2023-04-07T21:39:59.273Z,6.90
2023-04-07T21:46:01.284Z,6.80
2023-04-07T21:52:03.331Z,6.70
2023-04-07T21:58:05.209Z,6.70
2023-04-07T22:04:07.290Z,6.50
2023-04-07T22:10:09.601Z,6.30
2023-04-07T22:16:12.159Z,6.30
2023-04-07T22:22:14.035Z,6.10
2023-04-07T22:28:16.020Z,6.00
2023-04-07T22:34:18.435Z,5.90
2023-04-07T22:40:20.383Z,5.80
2023-04-07T22:46:22.292Z,5.80
2023-04-07T22:52:24.167Z,5.90
2023-04-07T22:58:26.457Z,5.90
2023-04-07T23:04:28.634Z,5.70
2023-04-07T23:10:32.499Z,5.90
2023-04-07T23:16:34.788Z,6.00
2023-04-07T23:22:36.628Z,5.60
2023-04-07T23:28:38.442Z,5.40
2023-04-07T23:34:40.976Z,5.40
2023-04-07T23:40:43.130Z,5.50
2023-04-07T23:46:44.934Z,5.60
2023-04-07T23:52:47.000Z,5.50
2023-04-07T23:58:49.056Z,5.50
